sensor_id;sensor_type;location;lat;lon;timestamp;P1;durP1;ratioP1;P2;durP2;ratioP2
53875;SDS011;39789;53.216;5.624;2022-07-29T00:01:20;1.70;;;1.55;;
53875;SDS011;39789;53.216;5.624;2022-07-29T00:03:46;3.53;;;1.85;;
53875;SDS011;39789;53.216;5.624;2022-07-29T00:06:12;2.90;;;2.13;;
53875;SDS011;39789;53.216;5.624;2022-07-29T00:08:37;3.20;;;1.70;;
53875;SDS011;39789;53.216;5.624;2022-07-29T00:11:03;2.30;;;1.70;;
53875;SDS011;39789;53.216;5.624;2022-07-29T00:13:29;3.55;;;1.70;;
53875;SDS011;39789;53.216;5.624;2022-07-29T00:15:54;3.50;;;1.65;;
53875;SDS011;39789;53.216;5.624;2022-07-29T00:18:20;2.97;;;1.70;;
53875;SDS011;39789;53.216;5.624;2022-07-29T00:20:46;2.30;;;1.60;;
53875;SDS011;39789;53.216;5.624;2022-07-29T00:23:11;1.55;;;1.42;;
53875;SDS011;39789;53.216;5.624;2022-07-29T00:25:37;3.65;;;1.80;;
53875;SDS011;39789;53.216;5.624;2022-07-29T00:28:02;2.88;;;1.90;;
53875;SDS011;39789;53.216;5.624;2022-07-29T00:30:28;4.95;;;1.73;;
53875;SDS011;39789;53.216;5.624;2022-07-29T00:32:54;2.20;;;1.38;;
53875;SDS011;39789;53.216;5.624;2022-07-29T00:35:19;2.17;;;1.65;;
53875;SDS011;39789;53.216;5.624;2022-07-29T00:38:03;1.80;;;1.52;;
53875;SDS011;39789;53.216;5.624;2022-07-29T00:40:29;2.35;;;1.60;;
53875;SDS011;39789;53.216;5.624;2022-07-29T00:42:55;3.10;;;1.83;;
53875;SDS011;39789;53.216;5.624;2022-07-29T00:45:20;3.63;;;1.85;;
53875;SDS011;39789;53.216;5.624;2022-07-29T00:47:47;3.65;;;1.88;;
53875;SDS011;39789;53.216;5.624;2022-07-29T00:50:13;2.50;;;1.67;;
53875;SDS011;39789;53.216;5.624;2022-07-29T00:52:40;5.07;;;1.90;;
53875;SDS011;39789;53.216;5.624;2022-07-29T00:55:07;2.75;;;1.92;;
53875;SDS011;39789;53.216;5.624;2022-07-29T00:57:35;3.47;;;2.25;;
53875;SDS011;39789;53.216;5.624;2022-07-29T01:00:03;3.92;;;1.83;;
53875;SDS011;39789;53.216;5.624;2022-07-29T01:02:30;2.90;;;2.10;;
53875;SDS011;39789;53.216;5.624;2022-07-29T01:04:55;2.17;;;1.65;;
53875;SDS011;39789;53.216;5.624;2022-07-29T01:07:22;2.53;;;2.10;;
53875;SDS011;39789;53.216;5.624;2022-07-29T01:09:50;3.47;;;1.80;;
53875;SDS011;39789;53.216;5.624;2022-07-29T01:12:23;3.55;;;1.92;;
53875;SDS011;39789;53.216;5.624;2022-07-29T01:14:50;2.58;;;1.77;;
53875;SDS011;39789;53.216;5.624;2022-07-29T01:31:04;3.85;;;1.83;;
53875;SDS011;39789;53.216;5.624;2022-07-29T01:33:32;3.70;;;2.00;;
53875;SDS011;39789;53.216;5.624;2022-07-29T01:36:29;2.75;;;1.90;;
53875;SDS011;39789;53.216;5.624;2022-07-29T01:39:08;2.53;;;2.10;;
53875;SDS011;39789;53.216;5.624;2022-07-29T01:41:38;3.75;;;2.20;;
53875;SDS011;39789;53.216;5.624;2022-07-29T01:44:12;3.90;;;2.20;;
53875;SDS011;39789;53.216;5.624;2022-07-29T01:46:44;11.43;;;2.58;;
53875;SDS011;39789;53.216;5.624;2022-07-29T01:49:16;3.97;;;2.17;;
53875;SDS011;39789;53.216;5.624;2022-07-29T01:51:46;5.38;;;2.40;;
53875;SDS011;39789;53.216;5.624;2022-07-29T01:54:26;3.78;;;2.17;;
53875;SDS011;39789;53.216;5.624;2022-07-29T01:59:26;2.83;;;2.30;;
53875;SDS011;39789;53.216;5.624;2022-07-29T02:01:54;3.65;;;2.50;;
53875;SDS011;39789;53.216;5.624;2022-07-29T02:04:22;4.40;;;2.38;;
53875;SDS011;39789;53.216;5.624;2022-07-29T02:06:49;4.22;;;2.78;;
53875;SDS011;39789;53.216;5.624;2022-07-29T02:09:17;4.20;;;2.65;;
53875;SDS011;39789;53.216;5.624;2022-07-29T02:11:47;3.88;;;2.97;;
53875;SDS011;39789;53.216;5.624;2022-07-29T02:14:17;5.45;;;3.03;;
53875;SDS011;39789;53.216;5.624;2022-07-29T02:16:43;3.83;;;3.20;;
53875;SDS011;39789;53.216;5.624;2022-07-29T02:19:10;6.57;;;3.83;;
53875;SDS011;39789;53.216;5.624;2022-07-29T02:21:38;5.93;;;3.72;;
53875;SDS011;39789;53.216;5.624;2022-07-29T02:24:05;6.28;;;3.40;;
53875;SDS011;39789;53.216;5.624;2022-07-29T02:26:32;4.53;;;3.20;;
53875;SDS011;39789;53.216;5.624;2022-07-29T02:28:59;5.55;;;2.90;;
53875;SDS011;39789;53.216;5.624;2022-07-29T02:31:28;5.45;;;2.90;;
53875;SDS011;39789;53.216;5.624;2022-07-29T02:33:57;6.57;;;2.65;;
53875;SDS011;39789;53.216;5.624;2022-07-29T02:36:26;3.42;;;2.70;;
53875;SDS011;39789;53.216;5.624;2022-07-29T02:38:53;7.93;;;3.28;;
53875;SDS011;39789;53.216;5.624;2022-07-29T02:41:23;6.03;;;2.95;;
53875;SDS011;39789;53.216;5.624;2022-07-29T02:43:57;4.07;;;2.92;;
53875;SDS011;39789;53.216;5.624;2022-07-29T02:46:33;3.53;;;2.13;;
53875;SDS011;39789;53.216;5.624;2022-07-29T02:52:01;7.13;;;3.00;;
53875;SDS011;39789;53.216;5.624;2022-07-29T02:54:39;4.45;;;2.30;;
53875;SDS011;39789;53.216;5.624;2022-07-29T02:57:11;2.70;;;2.40;;
53875;SDS011;39789;53.216;5.624;2022-07-29T02:59:43;4.43;;;3.03;;
53875;SDS011;39789;53.216;5.624;2022-07-29T03:02:12;3.55;;;2.70;;
53875;SDS011;39789;53.216;5.624;2022-07-29T03:04:40;5.10;;;2.85;;
53875;SDS011;39789;53.216;5.624;2022-07-29T03:07:07;6.00;;;3.17;;
53875;SDS011;39789;53.216;5.624;2022-07-29T03:09:35;5.00;;;2.90;;
53875;SDS011;39789;53.216;5.624;2022-07-29T03:12:03;4.43;;;2.80;;
53875;SDS011;39789;53.216;5.624;2022-07-29T03:14:29;3.90;;;3.03;;
53875;SDS011;39789;53.216;5.624;2022-07-29T03:16:56;4.22;;;2.97;;
53875;SDS011;39789;53.216;5.624;2022-07-29T03:19:23;4.18;;;2.50;;
53875;SDS011;39789;53.216;5.624;2022-07-29T03:21:49;4.05;;;3.05;;
53875;SDS011;39789;53.216;5.624;2022-07-29T03:24:34;3.97;;;2.60;;
53875;SDS011;39789;53.216;5.624;2022-07-29T03:27:02;3.22;;;2.40;;
53875;SDS011;39789;53.216;5.624;2022-07-29T03:29:28;9.75;;;2.88;;
53875;SDS011;39789;53.216;5.624;2022-07-29T03:31:54;4.78;;;2.58;;
53875;SDS011;39789;53.216;5.624;2022-07-29T03:34:20;4.18;;;2.40;;
53875;SDS011;39789;53.216;5.624;2022-07-29T03:36:46;2.58;;;2.30;;
53875;SDS011;39789;53.216;5.624;2022-07-29T03:39:12;3.40;;;2.38;;
53875;SDS011;39789;53.216;5.624;2022-07-29T03:41:42;4.35;;;2.70;;
53875;SDS011;39789;53.216;5.624;2022-07-29T03:44:10;3.85;;;2.60;;
53875;SDS011;39789;53.216;5.624;2022-07-29T03:46:37;3.67;;;2.60;;
53875;SDS011;39789;53.216;5.624;2022-07-29T03:49:04;5.15;;;2.40;;
53875;SDS011;39789;53.216;5.624;2022-07-29T03:51:33;4.30;;;2.80;;
53875;SDS011;39789;53.216;5.624;2022-07-29T03:54:00;3.78;;;2.45;;
53875;SDS011;39789;53.216;5.624;2022-07-29T03:56:27;5.30;;;2.50;;
53875;SDS011;39789;53.216;5.624;2022-07-29T03:58:54;6.30;;;2.67;;
53875;SDS011;39789;53.216;5.624;2022-07-29T04:01:20;5.05;;;2.50;;
53875;SDS011;39789;53.216;5.624;2022-07-29T04:03:47;3.67;;;2.60;;
53875;SDS011;39789;53.216;5.624;2022-07-29T04:06:13;3.35;;;2.83;;
53875;SDS011;39789;53.216;5.624;2022-07-29T04:08:39;3.40;;;2.47;;
53875;SDS011;39789;53.216;5.624;2022-07-29T04:11:05;3.70;;;2.50;;
53875;SDS011;39789;53.216;5.624;2022-07-29T04:13:31;3.55;;;2.35;;
53875;SDS011;39789;53.216;5.624;2022-07-29T04:15:57;4.40;;;2.70;;
53875;SDS011;39789;53.216;5.624;2022-07-29T04:18:23;4.05;;;2.63;;
53875;SDS011;39789;53.216;5.624;2022-07-29T04:20:49;3.97;;;2.60;;
53875;SDS011;39789;53.216;5.624;2022-07-29T04:23:14;5.18;;;2.63;;
53875;SDS011;39789;53.216;5.624;2022-07-29T04:25:40;3.72;;;2.50;;
53875;SDS011;39789;53.216;5.624;2022-07-29T04:28:07;4.07;;;2.50;;
53875;SDS011;39789;53.216;5.624;2022-07-29T04:30:33;2.83;;;2.58;;
53875;SDS011;39789;53.216;5.624;2022-07-29T04:33:01;4.53;;;2.60;;
53875;SDS011;39789;53.216;5.624;2022-07-29T04:35:28;3.60;;;2.55;;
53875;SDS011;39789;53.216;5.624;2022-07-29T04:37:55;5.55;;;2.33;;
53875;SDS011;39789;53.216;5.624;2022-07-29T04:40:21;6.20;;;2.85;;
53875;SDS011;39789;53.216;5.624;2022-07-29T04:42:47;3.15;;;2.50;;
53875;SDS011;39789;53.216;5.624;2022-07-29T04:45:13;4.10;;;2.60;;
53875;SDS011;39789;53.216;5.624;2022-07-29T04:47:38;5.25;;;2.60;;
53875;SDS011;39789;53.216;5.624;2022-07-29T04:50:05;3.65;;;2.17;;
53875;SDS011;39789;53.216;5.624;2022-07-29T04:52:32;4.80;;;2.50;;
53875;SDS011;39789;53.216;5.624;2022-07-29T04:54:57;3.50;;;2.17;;
53875;SDS011;39789;53.216;5.624;2022-07-29T04:57:23;3.15;;;2.45;;
53875;SDS011;39789;53.216;5.624;2022-07-29T04:59:49;4.32;;;2.70;;
53875;SDS011;39789;53.216;5.624;2022-07-29T05:02:14;3.42;;;2.13;;
53875;SDS011;39789;53.216;5.624;2022-07-29T05:04:40;3.78;;;2.45;;
53875;SDS011;39789;53.216;5.624;2022-07-29T05:10:49;4.13;;;2.53;;
53875;SDS011;39789;53.216;5.624;2022-07-29T05:13:14;3.88;;;2.20;;
53875;SDS011;39789;53.216;5.624;2022-07-29T05:15:44;5.15;;;2.63;;
53875;SDS011;39789;53.216;5.624;2022-07-29T05:18:09;6.07;;;2.30;;
53875;SDS011;39789;53.216;5.624;2022-07-29T05:20:35;4.65;;;2.00;;
53875;SDS011;39789;53.216;5.624;2022-07-29T05:23:01;4.28;;;2.08;;
53875;SDS011;39789;53.216;5.624;2022-07-29T05:25:29;5.03;;;2.40;;
53875;SDS011;39789;53.216;5.624;2022-07-29T05:27:55;3.05;;;2.03;;
53875;SDS011;39789;53.216;5.624;2022-07-29T05:30:20;4.30;;;2.33;;
53875;SDS011;39789;53.216;5.624;2022-07-29T05:32:46;4.20;;;1.90;;
53875;SDS011;39789;53.216;5.624;2022-07-29T05:35:12;4.00;;;2.15;;
53875;SDS011;39789;53.216;5.624;2022-07-29T05:37:39;3.35;;;2.10;;
53875;SDS011;39789;53.216;5.624;2022-07-29T05:40:05;2.88;;;1.88;;
53875;SDS011;39789;53.216;5.624;2022-07-29T05:42:35;5.00;;;2.08;;
53875;SDS011;39789;53.216;5.624;2022-07-29T05:45:01;3.67;;;2.30;;
53875;SDS011;39789;53.216;5.624;2022-07-29T05:47:28;3.70;;;2.40;;
53875;SDS011;39789;53.216;5.624;2022-07-29T05:49:53;2.58;;;2.00;;
53875;SDS011;39789;53.216;5.624;2022-07-29T05:52:19;7.32;;;2.25;;
53875;SDS011;39789;53.216;5.624;2022-07-29T05:54:45;2.63;;;1.90;;
53875;SDS011;39789;53.216;5.624;2022-07-29T05:57:15;2.40;;;1.85;;
53875;SDS011;39789;53.216;5.624;2022-07-29T05:59:41;4.22;;;1.98;;
53875;SDS011;39789;53.216;5.624;2022-07-29T06:02:07;2.70;;;1.73;;
53875;SDS011;39789;53.216;5.624;2022-07-29T06:04:32;2.92;;;1.77;;
53875;SDS011;39789;53.216;5.624;2022-07-29T06:06:58;6.82;;;2.35;;
53875;SDS011;39789;53.216;5.624;2022-07-29T06:09:24;6.68;;;2.28;;
53875;SDS011;39789;53.216;5.624;2022-07-29T06:11:50;5.30;;;2.00;;
53875;SDS011;39789;53.216;5.624;2022-07-29T06:14:17;4.70;;;2.40;;
53875;SDS011;39789;53.216;5.624;2022-07-29T06:16:43;3.40;;;1.80;;
53875;SDS011;39789;53.216;5.624;2022-07-29T06:19:09;2.13;;;1.60;;
53875;SDS011;39789;53.216;5.624;2022-07-29T06:21:35;3.58;;;1.92;;
53875;SDS011;39789;53.216;5.624;2022-07-29T06:24:00;2.58;;;1.80;;
53875;SDS011;39789;53.216;5.624;2022-07-29T06:26:26;2.53;;;1.67;;
53875;SDS011;39789;53.216;5.624;2022-07-29T06:28:52;3.00;;;2.00;;
53875;SDS011;39789;53.216;5.624;2022-07-29T06:31:24;5.63;;;2.25;;
53875;SDS011;39789;53.216;5.624;2022-07-29T06:33:49;4.60;;;1.88;;
53875;SDS011;39789;53.216;5.624;2022-07-29T06:36:15;2.60;;;2.08;;
53875;SDS011;39789;53.216;5.624;2022-07-29T06:38:41;2.65;;;1.83;;
53875;SDS011;39789;53.216;5.624;2022-07-29T06:41:07;4.00;;;2.17;;
53875;SDS011;39789;53.216;5.624;2022-07-29T06:43:39;3.55;;;1.77;;
53875;SDS011;39789;53.216;5.624;2022-07-29T06:46:15;1.98;;;1.60;;
53875;SDS011;39789;53.216;5.624;2022-07-29T06:48:44;2.42;;;1.77;;
53875;SDS011;39789;53.216;5.624;2022-07-29T06:51:12;3.15;;;1.75;;
53875;SDS011;39789;53.216;5.624;2022-07-29T06:53:38;2.55;;;1.88;;
53875;SDS011;39789;53.216;5.624;2022-07-29T06:56:05;5.70;;;1.70;;
53875;SDS011;39789;53.216;5.624;2022-07-29T06:58:33;4.22;;;2.10;;
53875;SDS011;39789;53.216;5.624;2022-07-29T07:01:01;3.38;;;1.88;;
53875;SDS011;39789;53.216;5.624;2022-07-29T07:03:28;4.25;;;1.98;;
53875;SDS011;39789;53.216;5.624;2022-07-29T07:05:55;5.60;;;1.98;;
53875;SDS011;39789;53.216;5.624;2022-07-29T07:08:21;3.95;;;2.00;;
53875;SDS011;39789;53.216;5.624;2022-07-29T07:10:48;3.83;;;1.90;;
53875;SDS011;39789;53.216;5.624;2022-07-29T07:13:14;3.08;;;1.80;;
53875;SDS011;39789;53.216;5.624;2022-07-29T07:15:42;5.07;;;2.30;;
53875;SDS011;39789;53.216;5.624;2022-07-29T07:18:08;4.20;;;1.98;;
53875;SDS011;39789;53.216;5.624;2022-07-29T07:20:34;3.08;;;2.22;;
53875;SDS011;39789;53.216;5.624;2022-07-29T07:23:00;4.13;;;2.10;;
53875;SDS011;39789;53.216;5.624;2022-07-29T07:25:26;3.90;;;2.20;;
53875;SDS011;39789;53.216;5.624;2022-07-29T07:27:52;4.85;;;2.33;;
53875;SDS011;39789;53.216;5.624;2022-07-29T07:30:17;2.78;;;1.88;;
53875;SDS011;39789;53.216;5.624;2022-07-29T07:35:29;5.97;;;3.03;;
53875;SDS011;39789;53.216;5.624;2022-07-29T07:37:55;5.10;;;2.13;;
53875;SDS011;39789;53.216;5.624;2022-07-29T07:40:21;4.95;;;2.00;;
53875;SDS011;39789;53.216;5.624;2022-07-29T07:42:47;4.55;;;1.90;;
53875;SDS011;39789;53.216;5.624;2022-07-29T07:45:13;2.20;;;1.95;;
53875;SDS011;39789;53.216;5.624;2022-07-29T07:47:38;4.60;;;2.10;;
53875;SDS011;39789;53.216;5.624;2022-07-29T07:50:05;3.88;;;2.00;;
53875;SDS011;39789;53.216;5.624;2022-07-29T07:52:37;3.63;;;1.90;;
53875;SDS011;39789;53.216;5.624;2022-07-29T07:57:45;3.70;;;1.92;;
53875;SDS011;39789;53.216;5.624;2022-07-29T08:00:12;5.18;;;2.13;;
53875;SDS011;39789;53.216;5.624;2022-07-29T08:02:39;4.78;;;1.85;;
53875;SDS011;39789;53.216;5.624;2022-07-29T08:05:06;4.35;;;1.90;;
53875;SDS011;39789;53.216;5.624;2022-07-29T08:11:13;5.85;;;2.20;;
53875;SDS011;39789;53.216;5.624;2022-07-29T08:13:39;4.30;;;1.80;;
53875;SDS011;39789;53.216;5.624;2022-07-29T08:16:05;5.70;;;1.92;;
53875;SDS011;39789;53.216;5.624;2022-07-29T08:18:38;6.90;;;2.00;;
53875;SDS011;39789;53.216;5.624;2022-07-29T08:21:05;4.43;;;2.17;;
53875;SDS011;39789;53.216;5.624;2022-07-29T08:23:31;2.67;;;2.08;;
53875;SDS011;39789;53.216;5.624;2022-07-29T08:26:03;2.97;;;1.90;;
53875;SDS011;39789;53.216;5.624;2022-07-29T08:28:30;3.20;;;2.00;;
53875;SDS011;39789;53.216;5.624;2022-07-29T08:30:55;3.58;;;1.73;;
53875;SDS011;39789;53.216;5.624;2022-07-29T08:33:21;3.20;;;1.88;;
53875;SDS011;39789;53.216;5.624;2022-07-29T08:35:47;6.75;;;2.10;;
53875;SDS011;39789;53.216;5.624;2022-07-29T08:38:14;3.03;;;2.08;;
53875;SDS011;39789;53.216;5.624;2022-07-29T08:40:40;4.28;;;1.65;;
53875;SDS011;39789;53.216;5.624;2022-07-29T08:43:06;5.80;;;2.30;;
53875;SDS011;39789;53.216;5.624;2022-07-29T08:45:51;4.47;;;1.85;;
53875;SDS011;39789;53.216;5.624;2022-07-29T08:48:18;4.53;;;2.03;;
53875;SDS011;39789;53.216;5.624;2022-07-29T08:50:46;4.78;;;2.00;;
53875;SDS011;39789;53.216;5.624;2022-07-29T08:53:14;5.65;;;2.08;;
53875;SDS011;39789;53.216;5.624;2022-07-29T08:55:42;5.72;;;1.80;;
53875;SDS011;39789;53.216;5.624;2022-07-29T08:58:09;3.40;;;2.35;;
53875;SDS011;39789;53.216;5.624;2022-07-29T09:00:36;5.97;;;2.10;;
53875;SDS011;39789;53.216;5.624;2022-07-29T09:03:05;4.35;;;2.47;;
53875;SDS011;39789;53.216;5.624;2022-07-29T09:05:33;4.13;;;2.30;;
53875;SDS011;39789;53.216;5.624;2022-07-29T09:07:59;6.65;;;2.45;;
53875;SDS011;39789;53.216;5.624;2022-07-29T09:13:56;3.67;;;2.05;;
53875;SDS011;39789;53.216;5.624;2022-07-29T09:16:22;7.40;;;1.95;;
53875;SDS011;39789;53.216;5.624;2022-07-29T09:18:47;4.40;;;2.10;;
53875;SDS011;39789;53.216;5.624;2022-07-29T09:21:14;3.42;;;1.95;;
53875;SDS011;39789;53.216;5.624;2022-07-29T09:24:20;3.33;;;2.10;;
53875;SDS011;39789;53.216;5.624;2022-07-29T09:26:46;2.63;;;1.80;;
53875;SDS011;39789;53.216;5.624;2022-07-29T09:29:13;3.20;;;1.95;;
53875;SDS011;39789;53.216;5.624;2022-07-29T09:31:47;5.35;;;2.15;;
53875;SDS011;39789;53.216;5.624;2022-07-29T09:34:24;4.93;;;2.40;;
53875;SDS011;39789;53.216;5.624;2022-07-29T09:36:52;3.22;;;2.55;;
53875;SDS011;39789;53.216;5.624;2022-07-29T09:39:29;5.38;;;2.22;;
53875;SDS011;39789;53.216;5.624;2022-07-29T09:42:00;3.53;;;2.00;;
53875;SDS011;39789;53.216;5.624;2022-07-29T09:44:44;4.30;;;2.10;;
53875;SDS011;39789;53.216;5.624;2022-07-29T09:47:13;9.30;;;2.53;;
53875;SDS011;39789;53.216;5.624;2022-07-29T09:49:54;3.75;;;2.22;;
53875;SDS011;39789;53.216;5.624;2022-07-29T09:52:28;3.10;;;1.95;;
53875;SDS011;39789;53.216;5.624;2022-07-29T09:55:07;3.25;;;1.92;;
53875;SDS011;39789;53.216;5.624;2022-07-29T09:57:36;3.80;;;2.38;;
53875;SDS011;39789;53.216;5.624;2022-07-29T10:00:06;4.82;;;2.50;;
53875;SDS011;39789;53.216;5.624;2022-07-29T10:02:38;4.28;;;2.33;;
53875;SDS011;39789;53.216;5.624;2022-07-29T10:05:06;3.42;;;2.00;;
53875;SDS011;39789;53.216;5.624;2022-07-29T10:07:47;5.28;;;2.15;;
53875;SDS011;39789;53.216;5.624;2022-07-29T10:12:57;3.45;;;2.20;;
53875;SDS011;39789;53.216;5.624;2022-07-29T10:15:24;4.78;;;2.38;;
53875;SDS011;39789;53.216;5.624;2022-07-29T10:17:55;5.30;;;1.92;;
53875;SDS011;39789;53.216;5.624;2022-07-29T10:20:22;6.15;;;2.53;;
53875;SDS011;39789;53.216;5.624;2022-07-29T10:22:48;5.60;;;2.53;;
53875;SDS011;39789;53.216;5.624;2022-07-29T10:25:16;4.32;;;2.35;;
53875;SDS011;39789;53.216;5.624;2022-07-29T10:27:42;4.63;;;2.33;;
53875;SDS011;39789;53.216;5.624;2022-07-29T10:30:11;6.25;;;2.45;;
53875;SDS011;39789;53.216;5.624;2022-07-29T10:46:35;3.60;;;2.30;;
53875;SDS011;39789;53.216;5.624;2022-07-29T10:49:06;6.25;;;2.63;;
53875;SDS011;39789;53.216;5.624;2022-07-29T10:54:48;8.05;;;2.15;;
53875;SDS011;39789;53.216;5.624;2022-07-29T10:57:16;6.80;;;2.95;;
53875;SDS011;39789;53.216;5.624;2022-07-29T11:05:04;8.25;;;2.90;;
53875;SDS011;39789;53.216;5.624;2022-07-29T11:07:31;3.30;;;2.67;;
53875;SDS011;39789;53.216;5.624;2022-07-29T11:15:10;5.82;;;3.22;;
53875;SDS011;39789;53.216;5.624;2022-07-29T11:20:35;3.95;;;2.88;;
53875;SDS011;39789;53.216;5.624;2022-07-29T11:31:41;6.32;;;2.83;;
53875;SDS011;39789;53.216;5.624;2022-07-29T11:34:29;6.47;;;3.17;;
53875;SDS011;39789;53.216;5.624;2022-07-29T11:39:39;4.13;;;3.15;;
53875;SDS011;39789;53.216;5.624;2022-07-29T11:44:53;3.90;;;2.75;;
53875;SDS011;39789;53.216;5.624;2022-07-29T11:47:22;4.88;;;2.88;;
53875;SDS011;39789;53.216;5.624;2022-07-29T11:49:52;5.07;;;2.90;;
53875;SDS011;39789;53.216;5.624;2022-07-29T11:52:20;5.38;;;3.13;;
53875;SDS011;39789;53.216;5.624;2022-07-29T11:54:49;8.25;;;3.28;;
53875;SDS011;39789;53.216;5.624;2022-07-29T11:57:16;7.78;;;3.22;;
53875;SDS011;39789;53.216;5.624;2022-07-29T11:59:43;7.75;;;3.33;;
53875;SDS011;39789;53.216;5.624;2022-07-29T12:02:10;4.95;;;3.35;;
53875;SDS011;39789;53.216;5.624;2022-07-29T12:04:52;7.60;;;3.13;;
53875;SDS011;39789;53.216;5.624;2022-07-29T12:07:26;6.70;;;3.30;;
53875;SDS011;39789;53.216;5.624;2022-07-29T12:09:56;4.72;;;2.80;;
53875;SDS011;39789;53.216;5.624;2022-07-29T12:12:22;5.65;;;3.00;;
53875;SDS011;39789;53.216;5.624;2022-07-29T12:14:48;4.88;;;3.13;;
53875;SDS011;39789;53.216;5.624;2022-07-29T12:17:24;5.68;;;4.00;;
53875;SDS011;39789;53.216;5.624;2022-07-29T12:19:54;7.70;;;3.22;;
53875;SDS011;39789;53.216;5.624;2022-07-29T12:22:24;5.60;;;3.75;;
53875;SDS011;39789;53.216;5.624;2022-07-29T12:25:00;6.78;;;3.30;;
53875;SDS011;39789;53.216;5.624;2022-07-29T12:27:27;6.47;;;3.75;;
53875;SDS011;39789;53.216;5.624;2022-07-29T12:30:01;6.30;;;3.75;;
53875;SDS011;39789;53.216;5.624;2022-07-29T12:32:35;5.55;;;4.57;;
53875;SDS011;39789;53.216;5.624;2022-07-29T12:35:12;6.43;;;3.80;;
53875;SDS011;39789;53.216;5.624;2022-07-29T12:37:40;6.53;;;3.53;;
53875;SDS011;39789;53.216;5.624;2022-07-29T12:40:09;7.03;;;3.83;;
53875;SDS011;39789;53.216;5.624;2022-07-29T12:42:36;5.90;;;2.97;;
53875;SDS011;39789;53.216;5.624;2022-07-29T12:45:02;6.40;;;3.30;;
53875;SDS011;39789;53.216;5.624;2022-07-29T12:47:29;6.15;;;3.42;;
53875;SDS011;39789;53.216;5.624;2022-07-29T12:50:14;5.10;;;4.05;;
53875;SDS011;39789;53.216;5.624;2022-07-29T12:52:43;7.22;;;4.13;;
53875;SDS011;39789;53.216;5.624;2022-07-29T12:55:10;8.80;;;3.90;;
53875;SDS011;39789;53.216;5.624;2022-07-29T13:01:17;6.15;;;3.53;;
53875;SDS011;39789;53.216;5.624;2022-07-29T13:03:49;5.00;;;3.40;;
53875;SDS011;39789;53.216;5.624;2022-07-29T13:09:02;6.60;;;3.03;;
53875;SDS011;39789;53.216;5.624;2022-07-29T13:11:39;5.28;;;3.50;;
53875;SDS011;39789;53.216;5.624;2022-07-29T13:14:57;8.85;;;3.42;;
53875;SDS011;39789;53.216;5.624;2022-07-29T13:17:06;6.47;;;3.50;;
53875;SDS011;39789;53.216;5.624;2022-07-29T13:19:32;4.72;;;3.00;;
53875;SDS011;39789;53.216;5.624;2022-07-29T13:21:59;5.80;;;3.40;;
53875;SDS011;39789;53.216;5.624;2022-07-29T13:24:25;9.80;;;3.45;;
53875;SDS011;39789;53.216;5.624;2022-07-29T13:26:51;6.40;;;3.63;;
53875;SDS011;39789;53.216;5.624;2022-07-29T13:29:17;6.32;;;3.67;;
53875;SDS011;39789;53.216;5.624;2022-07-29T13:31:43;12.20;;;4.18;;
53875;SDS011;39789;53.216;5.624;2022-07-29T13:34:09;7.03;;;3.65;;
53875;SDS011;39789;53.216;5.624;2022-07-29T13:36:34;7.45;;;4.25;;
53875;SDS011;39789;53.216;5.624;2022-07-29T13:39:00;7.18;;;3.38;;
53875;SDS011;39789;53.216;5.624;2022-07-29T13:41:27;7.28;;;3.60;;
53875;SDS011;39789;53.216;5.624;2022-07-29T13:43:53;6.15;;;3.60;;
53875;SDS011;39789;53.216;5.624;2022-07-29T13:46:19;8.23;;;2.97;;
53875;SDS011;39789;53.216;5.624;2022-07-29T13:48:45;9.25;;;3.80;;
53875;SDS011;39789;53.216;5.624;2022-07-29T13:51:10;6.22;;;2.70;;
53875;SDS011;39789;53.216;5.624;2022-07-29T13:53:36;7.85;;;3.75;;
53875;SDS011;39789;53.216;5.624;2022-07-29T13:56:02;8.13;;;4.22;;
53875;SDS011;39789;53.216;5.624;2022-07-29T13:58:30;8.07;;;3.10;;
53875;SDS011;39789;53.216;5.624;2022-07-29T14:00:55;4.38;;;3.15;;
53875;SDS011;39789;53.216;5.624;2022-07-29T14:03:21;9.23;;;4.05;;
53875;SDS011;39789;53.216;5.624;2022-07-29T14:09:28;5.45;;;3.13;;
53875;SDS011;39789;53.216;5.624;2022-07-29T14:11:57;4.93;;;3.13;;
53875;SDS011;39789;53.216;5.624;2022-07-29T14:14:22;4.10;;;3.25;;
53875;SDS011;39789;53.216;5.624;2022-07-29T14:16:48;9.48;;;3.60;;
53875;SDS011;39789;53.216;5.624;2022-07-29T14:19:14;5.72;;;3.70;;
53875;SDS011;39789;53.216;5.624;2022-07-29T14:21:40;9.82;;;3.47;;
53875;SDS011;39789;53.216;5.624;2022-07-29T14:24:06;6.90;;;3.70;;
53875;SDS011;39789;53.216;5.624;2022-07-29T14:26:32;4.55;;;3.08;;
53875;SDS011;39789;53.216;5.624;2022-07-29T14:28:57;6.80;;;3.60;;
53875;SDS011;39789;53.216;5.624;2022-07-29T14:31:23;7.35;;;3.42;;
53875;SDS011;39789;53.216;5.624;2022-07-29T14:33:49;7.05;;;3.75;;
53875;SDS011;39789;53.216;5.624;2022-07-29T14:36:14;9.07;;;3.67;;
53875;SDS011;39789;53.216;5.624;2022-07-29T14:38:43;5.00;;;3.30;;
53875;SDS011;39789;53.216;5.624;2022-07-29T14:41:09;7.80;;;3.15;;
53875;SDS011;39789;53.216;5.624;2022-07-29T14:43:35;7.43;;;3.63;;
53875;SDS011;39789;53.216;5.624;2022-07-29T14:46:00;5.00;;;2.95;;
53875;SDS011;39789;53.216;5.624;2022-07-29T14:48:26;5.43;;;3.10;;
53875;SDS011;39789;53.216;5.624;2022-07-29T14:50:52;5.55;;;3.40;;
53875;SDS011;39789;53.216;5.624;2022-07-29T14:53:20;5.63;;;3.20;;
53875;SDS011;39789;53.216;5.624;2022-07-29T14:55:45;7.03;;;3.17;;
53875;SDS011;39789;53.216;5.624;2022-07-29T14:58:11;6.53;;;3.50;;
53875;SDS011;39789;53.216;5.624;2022-07-29T15:00:37;7.88;;;4.15;;
53875;SDS011;39789;53.216;5.624;2022-07-29T15:03:03;5.78;;;3.17;;
53875;SDS011;39789;53.216;5.624;2022-07-29T15:05:29;9.85;;;3.88;;
53875;SDS011;39789;53.216;5.624;2022-07-29T15:07:56;4.63;;;3.20;;
53875;SDS011;39789;53.216;5.624;2022-07-29T15:10:22;6.22;;;3.42;;
53875;SDS011;39789;53.216;5.624;2022-07-29T15:12:47;4.78;;;3.38;;
53875;SDS011;39789;53.216;5.624;2022-07-29T15:15:13;5.28;;;2.67;;
53875;SDS011;39789;53.216;5.624;2022-07-29T15:17:38;4.30;;;3.17;;
53875;SDS011;39789;53.216;5.624;2022-07-29T15:20:04;8.43;;;3.50;;
53875;SDS011;39789;53.216;5.624;2022-07-29T15:22:30;7.13;;;3.35;;
53875;SDS011;39789;53.216;5.624;2022-07-29T15:24:56;5.35;;;3.17;;
53875;SDS011;39789;53.216;5.624;2022-07-29T15:27:21;7.10;;;3.70;;
53875;SDS011;39789;53.216;5.624;2022-07-29T15:29:47;7.95;;;3.80;;
53875;SDS011;39789;53.216;5.624;2022-07-29T15:32:13;6.40;;;3.20;;
53875;SDS011;39789;53.216;5.624;2022-07-29T15:34:39;9.10;;;3.95;;
53875;SDS011;39789;53.216;5.624;2022-07-29T15:37:05;6.53;;;3.53;;
53875;SDS011;39789;53.216;5.624;2022-07-29T15:39:31;7.30;;;3.65;;
53875;SDS011;39789;53.216;5.624;2022-07-29T15:45:38;6.13;;;3.40;;
53875;SDS011;39789;53.216;5.624;2022-07-29T15:48:06;5.85;;;3.30;;
53875;SDS011;39789;53.216;5.624;2022-07-29T15:50:33;7.90;;;3.35;;
53875;SDS011;39789;53.216;5.624;2022-07-29T15:52:59;10.80;;;4.15;;
53875;SDS011;39789;53.216;5.624;2022-07-29T15:55:27;12.02;;;4.00;;
53875;SDS011;39789;53.216;5.624;2022-07-29T15:57:53;8.10;;;3.97;;
53875;SDS011;39789;53.216;5.624;2022-07-29T16:00:19;8.55;;;3.67;;
53875;SDS011;39789;53.216;5.624;2022-07-29T16:02:46;9.50;;;3.55;;
53875;SDS011;39789;53.216;5.624;2022-07-29T16:05:11;6.35;;;3.08;;
53875;SDS011;39789;53.216;5.624;2022-07-29T16:07:37;5.63;;;3.42;;
53875;SDS011;39789;53.216;5.624;2022-07-29T16:10:03;7.15;;;3.92;;
53875;SDS011;39789;53.216;5.624;2022-07-29T16:12:29;8.68;;;3.33;;
53875;SDS011;39789;53.216;5.624;2022-07-29T16:14:55;6.28;;;3.78;;
53875;SDS011;39789;53.216;5.624;2022-07-29T16:21:01;3.78;;;2.72;;
53875;SDS011;39789;53.216;5.624;2022-07-29T16:23:27;14.60;;;3.22;;
53875;SDS011;39789;53.216;5.624;2022-07-29T16:25:54;10.30;;;3.55;;
53875;SDS011;39789;53.216;5.624;2022-07-29T16:28:20;7.53;;;3.20;;
53875;SDS011;39789;53.216;5.624;2022-07-29T16:30:45;7.78;;;3.80;;
53875;SDS011;39789;53.216;5.624;2022-07-29T16:33:11;6.88;;;3.53;;